Валуйки

СКИДКИ НА СМАРТФОНЫ!

Карта отелей и гостиниц, располагающихся рядом с аэропортом Валуйки :

Валуйки Белгородская область 50° 13' 29.82" N, 38° 6' 39.6" E
Валуйки Белгородская область 50° 13' 29.82" N, 38° 6' 39.6" E
Код аэродрома ИКАО
UUOW
Код аэродрома RU
УУОВ
Координаты
N50.22495° E038.11100°
Превышение над уровнем моря
184
Основная полоса
09/27
Курс магнитный
092,6/272,6
Длина основной ВПП
550
Ширина основной ВПП
20
Покрытие основной ВПП
Твёрдое (асфальт)
Освещение ВПП
Нет
Тип: 
Аэродром
Класс аэродрома: 
Принадлежность: 
ГА
Статус: 
Недействующий
Сайт: 
E-mail аэродрома: 
Страна: 
Россия
Регион: 
Белгородская область
Город: 
Дополнительная информация: 
Бывший аэродром МВЛ-2.

Скидки на навигаторы!

Найти трансфер

С помощью этой формы Вы можете найти трансфер из аэропорта Валуйки в город, аэропорт или вокзал:

Погода в аэропортах:

Авиационная погода в Нальчике

Регион: 
Погода METAR: 
URMN 072100Z 22002MPS 2000 BR OVC007 M03/M03 Q1024 R24/////// NOSIG RMK MT OBSC QFE731
Время наблюдения
2022-12-07T21:00:00Z
Температура C
-3.0
Точка росы
-3.0
Направление ветра
220
Скорость ветра (узлы)
4
Метео видимость
1.24
Облачность
OVC
Нижняя граница облачности (футы)
700
Явления погоды
BR
Условия полета
IFR
Аэропорт подробнее: 
OVC – сплошная облачность;
BR – дымка (видимость от 1 до 9 км);

Авиационная погода в Мирном

Регион: 
Погода METAR: 
UERR 072100Z 01002MPS 9999 -SN NSC M19/M22 Q1001 R25/499030 NOSIG RMK QFE720/0960
Время наблюдения
2022-12-07T21:00:00Z
Температура C
-19.0
Точка росы
-22.0
Направление ветра
10
Скорость ветра (узлы)
4
Метео видимость
6.21
Облачность
CLR
Нижняя граница облачности (футы)
Явления погоды
-SN
Условия полета
VFR
Аэропорт подробнее: 
CLR — нет облаков ниже 3000 м
-SN – слабый снег;

Авиационная погода в Екатеринбурге

Регион: 
Погода METAR: 
USSS 072100Z 26004MPS 9999 -SN SCT005 M15/M17 Q1034 R26L/39//37 TEMPO BKN003 RMK QFE754/1006
Время наблюдения
2022-12-07T21:00:00Z
Температура C
-15.0
Точка росы
-17.0
Направление ветра
260
Скорость ветра (узлы)
8
Метео видимость
6.21
Облачность
SCT
Нижняя граница облачности (футы)
500
Явления погоды
-SN
Условия полета
VFR
Аэропорт подробнее: 
SCT – разбросанная отдельная облачность;
-SN – слабый снег;

Авиационная погода в Новокузнецке

Регион: 
Погода METAR: 
UNWW 072100Z 11001MPS 3600 BR FU NSC M26/M29 Q1038 R19/420150 NOSIG RMK QFE751
Время наблюдения
2022-12-07T21:00:00Z
Температура C
-26.0
Точка росы
-29.0
Направление ветра
110
Скорость ветра (узлы)
2
Метео видимость
2.24
Облачность
CLR
Нижняя граница облачности (футы)
Явления погоды
BR FU
Условия полета
IFR
Аэропорт подробнее: 
CLR — нет облаков ниже 3000 м
BR – дымка (видимость от 1 до 9 км); FU – дым (видимость менее 10 км);